sim
Sign-in with your pilot id or email,
or register
Callsign
Passwort

Schedule Details

Flight Number: DLH2095 (2)
Departure: Hannover Langenhagen Airport (EDDV) at 12:35
Arrival: Munich Airport (EDDM) at 13:45
Route: Lufthansa Passenger Schedule. Enter filed route here before submitting Pirep.

Weather Information
Getting current METAR information for EDDV 010550Z 11005KT 090V160 8000 NSC 10/09 Q1007 NOSIG
Getting current METAR information for EDDM 010550Z VRB01KT 0500 R08L/0375N R08R/0250N FG BKN001 04/04 Q1009 BECMG 1200 BCFG BKN002

Schedule Frequency

Route Map